sensor_id;sensor_type;location;lat;lon;timestamp;pressure;altitude;pressure_sealevel;temperature;humidity
58875;BME280;44652;49.040;12.126;2023-06-10T00:01:43;97189.09;;;16.33;82.06
58875;BME280;44652;49.040;12.126;2023-06-10T00:04:14;97196.19;;;16.37;81.93
58875;BME280;44652;49.040;12.126;2023-06-10T00:06:45;97195.34;;;16.26;82.43
58875;BME280;44652;49.040;12.126;2023-06-10T00:09:15;97199.75;;;16.33;81.91
58875;BME280;44652;49.040;12.126;2023-06-10T00:11:42;97204.22;;;16.13;82.97
58875;BME280;44652;49.040;12.126;2023-06-10T00:14:09;97213.97;;;16.21;82.86
58875;BME280;44652;49.040;12.126;2023-06-10T00:16:35;97210.44;;;16.12;83.48
58875;BME280;44652;49.040;12.126;2023-06-10T00:19:03;97183.88;;;15.96;83.81
58875;BME280;44652;49.040;12.126;2023-06-10T00:21:32;97213.97;;;16.04;84.03
58875;BME280;44652;49.040;12.126;2023-06-10T00:24:04;97194.53;;;15.92;84.21
58875;BME280;44652;49.040;12.126;2023-06-10T00:26:32;97189.19;;;15.90;84.40
58875;BME280;44652;49.040;12.126;2023-06-10T00:28:59;97179.44;;;15.91;84.12
58875;BME280;44652;49.040;12.126;2023-06-10T00:31:26;97191.00;;;15.91;84.34
58875;BME280;44652;49.040;12.126;2023-06-10T00:33:53;97214.84;;;16.10;84.08
58875;BME280;44652;49.040;12.126;2023-06-10T00:36:20;97210.47;;;15.93;84.70
58875;BME280;44652;49.040;12.126;2023-06-10T00:38:47;97189.19;;;15.93;84.34
58875;BME280;44652;49.040;12.126;2023-06-10T00:41:14;97195.44;;;15.74;85.42
58875;BME280;44652;49.040;12.126;2023-06-10T00:43:40;97202.50;;;15.75;85.83
58875;BME280;44652;49.040;12.126;2023-06-10T00:46:07;97205.16;;;15.67;86.43
58875;BME280;44652;49.040;12.126;2023-06-10T00:48:34;97208.72;;;15.77;86.16
58875;BME280;44652;49.040;12.126;2023-06-10T00:51:01;97181.22;;;15.56;86.91
58875;BME280;44652;49.040;12.126;2023-06-10T00:53:28;97178.56;;;15.64;86.38
58875;BME280;44652;49.040;12.126;2023-06-10T00:55:55;97189.22;;;15.61;86.88
58875;BME280;44652;49.040;12.126;2023-06-10T00:58:23;97162.66;;;15.50;86.59
58875;BME280;44652;49.040;12.126;2023-06-10T01:00:51;97187.44;;;15.49;87.70
58875;BME280;44652;49.040;12.126;2023-06-10T01:03:18;97179.47;;;15.37;87.84
58875;BME280;44652;49.040;12.126;2023-06-10T01:05:51;97195.41;;;15.48;88.16
58875;BME280;44652;49.040;12.126;2023-06-10T01:08:28;97167.94;;;15.37;88.09
58875;BME280;44652;49.040;12.126;2023-06-10T01:11:00;97175.03;;;15.47;87.61
58875;BME280;44652;49.040;12.126;2023-06-10T01:13:30;97197.16;;;15.44;88.00
58875;BME280;44652;49.040;12.126;2023-06-10T01:15:58;97193.63;;;15.28;88.50
58875;BME280;44652;49.040;12.126;2023-06-10T01:18:32;97212.22;;;15.47;88.04
58875;BME280;44652;49.040;12.126;2023-06-10T01:20:58;97187.44;;;15.40;87.76
58875;BME280;44652;49.040;12.126;2023-06-10T01:23:25;97185.66;;;15.36;87.81
58875;BME280;44652;49.040;12.126;2023-06-10T01:25:54;97215.78;;;15.46;88.31
58875;BME280;44652;49.040;12.126;2023-06-10T01:28:37;97199.81;;;15.33;88.31
58875;BME280;44652;49.040;12.126;2023-06-10T01:33:37;97184.75;;;15.13;89.38
58875;BME280;44652;49.040;12.126;2023-06-10T01:36:06;97212.22;;;15.27;89.39
58875;BME280;44652;49.040;12.126;2023-06-10T01:38:42;97211.31;;;15.28;88.96
58875;BME280;44652;49.040;12.126;2023-06-10T01:41:12;97187.41;;;15.14;89.18
58875;BME280;44652;49.040;12.126;2023-06-10T01:43:39;97190.94;;;15.08;89.59
58875;BME280;44652;49.040;12.126;2023-06-10T01:46:06;97195.34;;;15.02;90.19
58875;BME280;44652;49.040;12.126;2023-06-10T01:48:34;97191.81;;;15.03;90.01
58875;BME280;44652;49.040;12.126;2023-06-10T01:51:00;97193.63;;;15.12;89.64
58875;BME280;44652;49.040;12.126;2023-06-10T01:53:27;97206.84;;;15.07;89.90
58875;BME280;44652;49.040;12.126;2023-06-10T01:55:54;97185.63;;;14.93;90.18
58875;BME280;44652;49.040;12.126;2023-06-10T01:58:21;97188.28;;;14.93;90.18
58875;BME280;44652;49.040;12.126;2023-06-10T02:00:47;97213.03;;;15.07;90.25
58875;BME280;44652;49.040;12.126;2023-06-10T02:03:14;97206.84;;;14.98;90.88
58875;BME280;44652;49.040;12.126;2023-06-10T02:05:41;97197.97;;;14.85;91.00
58875;BME280;44652;49.040;12.126;2023-06-10T02:08:08;97216.53;;;14.83;91.63
58875;BME280;44652;49.040;12.126;2023-06-10T02:10:35;97202.31;;;14.62;92.80
58875;BME280;44652;49.040;12.126;2023-06-10T02:13:02;97212.03;;;14.59;92.56
58875;BME280;44652;49.040;12.126;2023-06-10T02:15:28;97218.22;;;14.60;93.30
58875;BME280;44652;49.040;12.126;2023-06-10T02:17:55;97188.16;;;14.59;92.74
58875;BME280;44652;49.040;12.126;2023-06-10T02:20:22;97227.09;;;14.70;92.88
58875;BME280;44652;49.040;12.126;2023-06-10T02:22:49;97223.53;;;14.63;93.38
58875;BME280;44652;49.040;12.126;2023-06-10T02:25:15;97208.47;;;14.56;93.34
58875;BME280;44652;49.040;12.126;2023-06-10T02:27:42;97206.72;;;14.59;93.19
58875;BME280;44652;49.040;12.126;2023-06-10T02:30:09;97223.56;;;14.66;93.07
58875;BME280;44652;49.040;12.126;2023-06-10T02:32:37;97212.88;;;14.49;93.66
58875;BME280;44652;49.040;12.126;2023-06-10T02:35:04;97228.78;;;14.54;93.26
58875;BME280;44652;49.040;12.126;2023-06-10T02:37:32;97230.56;;;14.58;93.30
58875;BME280;44652;49.040;12.126;2023-06-10T02:39:59;97213.66;;;14.38;93.75
58875;BME280;44652;49.040;12.126;2023-06-10T02:42:26;97235.84;;;14.50;93.68
58875;BME280;44652;49.040;12.126;2023-06-10T02:44:53;97237.56;;;14.44;94.30
58875;BME280;44652;49.040;12.126;2023-06-10T02:47:34;97215.44;;;14.39;94.58
58875;BME280;44652;49.040;12.126;2023-06-10T02:50:01;97220.72;;;14.35;95.01
58875;BME280;44652;49.040;12.126;2023-06-10T02:52:30;97221.59;;;14.30;95.87
58875;BME280;44652;49.040;12.126;2023-06-10T02:54:58;97206.47;;;14.17;96.06
58875;BME280;44652;49.040;12.126;2023-06-10T02:57:25;97202.09;;;14.22;95.68
58875;BME280;44652;49.040;12.126;2023-06-10T02:59:52;97226.88;;;14.25;95.93
58875;BME280;44652;49.040;12.126;2023-06-10T03:02:21;97227.72;;;14.18;96.46
58875;BME280;44652;49.040;12.126;2023-06-10T03:04:50;97229.47;;;14.19;96.19
58875;BME280;44652;49.040;12.126;2023-06-10T03:07:18;97232.09;;;14.16;96.61
58875;BME280;44652;49.040;12.126;2023-06-10T03:09:49;97217.91;;;14.05;97.75
58875;BME280;44652;49.040;12.126;2023-06-10T03:12:16;97235.63;;;14.15;97.25
58875;BME280;44652;49.040;12.126;2023-06-10T03:14:46;97206.50;;;14.14;96.45
58875;BME280;44652;49.040;12.126;2023-06-10T03:17:13;97208.25;;;14.15;96.82
58875;BME280;44652;49.040;12.126;2023-06-10T03:19:42;97213.56;;;14.19;96.80
58875;BME280;44652;49.040;12.126;2023-06-10T03:22:13;97211.81;;;14.23;95.92
58875;BME280;44652;49.040;12.126;2023-06-10T03:24:51;97229.50;;;14.24;96.49
58875;BME280;44652;49.040;12.126;2023-06-10T03:27:18;97211.78;;;14.15;95.63
58875;BME280;44652;49.040;12.126;2023-06-10T03:29:49;97215.31;;;14.14;96.14
58875;BME280;44652;49.040;12.126;2023-06-10T03:32:16;97236.59;;;14.26;95.19
58875;BME280;44652;49.040;12.126;2023-06-10T03:34:43;97234.81;;;14.21;95.96
58875;BME280;44652;49.040;12.126;2023-06-10T03:37:12;97230.34;;;14.20;95.48
58875;BME280;44652;49.040;12.126;2023-06-10T03:39:39;97239.19;;;14.20;95.88
58875;BME280;44652;49.040;12.126;2023-06-10T03:42:06;97236.50;;;14.12;96.04
58875;BME280;44652;49.040;12.126;2023-06-10T03:44:33;97213.47;;;13.99;96.10
58875;BME280;44652;49.040;12.126;2023-06-10T03:47:00;97220.56;;;14.06;96.14
58875;BME280;44652;49.040;12.126;2023-06-10T03:49:26;97225.88;;;14.08;96.62
58875;BME280;44652;49.040;12.126;2023-06-10T03:52:00;97238.22;;;14.04;97.10
58875;BME280;44652;49.040;12.126;2023-06-10T03:54:26;97210.72;;;13.85;97.52
58875;BME280;44652;49.040;12.126;2023-06-10T03:56:53;97227.50;;;13.84;98.70
58875;BME280;44652;49.040;12.126;2023-06-10T03:59:20;97249.72;;;14.08;99.43
58875;BME280;44652;49.040;12.126;2023-06-10T04:01:47;97247.13;;;14.16;98.92
58875;BME280;44652;49.040;12.126;2023-06-10T04:04:14;97237.34;;;14.08;99.46
58875;BME280;44652;49.040;12.126;2023-06-10T04:06:43;97240.00;;;14.08;99.77
58875;BME280;44652;49.040;12.126;2023-06-10T04:09:11;97257.75;;;14.20;100.00
58875;BME280;44652;49.040;12.126;2023-06-10T04:11:38;97236.50;;;14.09;100.00
58875;BME280;44652;49.040;12.126;2023-06-10T04:14:06;97256.94;;;14.29;100.00
58875;BME280;44652;49.040;12.126;2023-06-10T04:16:33;97235.69;;;14.27;99.33
58875;BME280;44652;49.040;12.126;2023-06-10T04:19:00;97253.44;;;14.36;99.94
58875;BME280;44652;49.040;12.126;2023-06-10T04:21:27;97245.44;;;14.30;100.00
58875;BME280;44652;49.040;12.126;2023-06-10T04:23:54;97236.63;;;14.34;99.97
58875;BME280;44652;49.040;12.126;2023-06-10T04:26:21;97228.59;;;14.23;99.82
58875;BME280;44652;49.040;12.126;2023-06-10T04:28:51;97241.97;;;14.42;99.46
58875;BME280;44652;49.040;12.126;2023-06-10T04:31:18;97218.97;;;14.38;99.10
58875;BME280;44652;49.040;12.126;2023-06-10T04:33:46;97241.16;;;14.50;98.82
58875;BME280;44652;49.040;12.126;2023-06-10T04:36:14;97232.25;;;14.42;99.57
58875;BME280;44652;49.040;12.126;2023-06-10T04:38:41;97246.50;;;14.61;98.88
58875;BME280;44652;49.040;12.126;2023-06-10T04:41:09;97243.88;;;14.59;99.04
58875;BME280;44652;49.040;12.126;2023-06-10T04:43:36;97239.47;;;14.63;98.53
58875;BME280;44652;49.040;12.126;2023-06-10T04:46:03;97246.53;;;14.67;98.90
58875;BME280;44652;49.040;12.126;2023-06-10T04:48:34;97260.78;;;14.86;98.48
58875;BME280;44652;49.040;12.126;2023-06-10T04:51:02;97255.50;;;14.98;98.35
58875;BME280;44652;49.040;12.126;2023-06-10T04:53:29;97253.72;;;14.99;98.36
58875;BME280;44652;49.040;12.126;2023-06-10T04:55:56;97236.91;;;14.98;97.76
58875;BME280;44652;49.040;12.126;2023-06-10T04:58:24;97241.38;;;15.05;98.19
58875;BME280;44652;49.040;12.126;2023-06-10T05:00:50;97264.41;;;15.29;97.23
58875;BME280;44652;49.040;12.126;2023-06-10T05:03:17;97238.75;;;15.36;96.08
58875;BME280;44652;49.040;12.126;2023-06-10T05:05:44;97244.94;;;15.33;96.05
58875;BME280;44652;49.040;12.126;2023-06-10T05:08:11;97248.50;;;15.40;96.11
58875;BME280;44652;49.040;12.126;2023-06-10T05:10:37;97247.66;;;15.50;96.36
58875;BME280;44652;49.040;12.126;2023-06-10T05:13:04;97237.00;;;15.49;95.99
58875;BME280;44652;49.040;12.126;2023-06-10T05:15:31;97257.44;;;15.73;94.75
58875;BME280;44652;49.040;12.126;2023-06-10T05:17:58;97267.19;;;15.88;95.12
58875;BME280;44652;49.040;12.126;2023-06-10T05:20:25;97260.97;;;15.96;93.64
58875;BME280;44652;49.040;12.126;2023-06-10T05:22:53;97249.41;;;16.02;93.26
58875;BME280;44652;49.040;12.126;2023-06-10T05:25:21;97246.75;;;16.02;93.04
58875;BME280;44652;49.040;12.126;2023-06-10T05:27:47;97269.78;;;16.30;92.48
58875;BME280;44652;49.040;12.126;2023-06-10T05:30:14;97246.72;;;16.28;91.51
58875;BME280;44652;49.040;12.126;2023-06-10T05:32:41;97255.59;;;16.33;91.12
58875;BME280;44652;49.040;12.126;2023-06-10T05:35:08;97267.94;;;16.54;91.03
58875;BME280;44652;49.040;12.126;2023-06-10T05:37:35;97251.97;;;16.51;90.36
58875;BME280;44652;49.040;12.126;2023-06-10T05:40:03;97252.84;;;16.54;90.02
58875;BME280;44652;49.040;12.126;2023-06-10T05:42:31;97244.00;;;16.49;90.24
58875;BME280;44652;49.040;12.126;2023-06-10T05:44:57;97272.31;;;16.70;90.26
58875;BME280;44652;49.040;12.126;2023-06-10T05:47:24;97260.78;;;16.77;89.20
58875;BME280;44652;49.040;12.126;2023-06-10T05:49:51;97241.31;;;16.65;89.01
58875;BME280;44652;49.040;12.126;2023-06-10T05:52:18;97252.81;;;16.70;88.78
58875;BME280;44652;49.040;12.126;2023-06-10T05:54:45;97249.25;;;16.77;88.85
58875;BME280;44652;49.040;12.126;2023-06-10T05:57:12;97260.72;;;16.94;87.84
58875;BME280;44652;49.040;12.126;2023-06-10T05:59:38;97258.94;;;16.98;86.87
58875;BME280;44652;49.040;12.126;2023-06-10T06:02:08;97247.38;;;17.02;86.36
58875;BME280;44652;49.040;12.126;2023-06-10T06:04:35;97247.38;;;17.05;85.88
58875;BME280;44652;49.040;12.126;2023-06-10T06:07:02;97255.28;;;17.16;86.44
58875;BME280;44652;49.040;12.126;2023-06-10T06:09:28;97244.63;;;17.19;85.27
58875;BME280;44652;49.040;12.126;2023-06-10T06:11:55;97248.09;;;17.33;85.44
58875;BME280;44652;49.040;12.126;2023-06-10T06:14:22;97241.88;;;17.31;85.90
58875;BME280;44652;49.040;12.126;2023-06-10T06:16:48;97260.28;;;17.68;84.83
